x

South Brooks (46132) Wave Buoy

3:00am - Sat 28th May 2016 All times are PDT. -7 hours from GMT.

  • Sig Wave height 3.6ft
  • Peak Period 5s
  • Wind
    13mph, 16mph gusts
  • Sea Temp 53°f
  • 空気 Temp 51°f
  • Sea Pressure 1014.4mb
  • South Brooks
  • South Brooks

More Historic Weather Station data

Upgrade to MSW Pro to gain access to the past 30 days of data for over 8000 Wavebouys and Weather Stations around the globe.

Join Pro

Comparision Forecast

View Surf forecast
   
Sat 05/28 3:00am 3.5ft 5s 13 16 mph 1014.4mb 53f 51f
2:00am 3.5ft 7s 13 18 mph 1015mb 53f 50f
1:00am 3.5ft 5s 11 13 mph 1016mb 53f 50f
12:00am 4ft 6s 11 13 mph 1016.6mb 53f 50f
Fri 05/27 11:00pm 4ft 6s 9 13 mph 1017.2mb 53f 49f
10:00pm 4ft 6s 9 11 mph 1017.7mb 53f 49f
9:00pm 4ft 8s 7 9 mph 1017.8mb 53f 50f
8:00pm 4ft 5s 4 7 mph 1018.4mb 53f 50f
7:00pm 4ft 7s 7 9 mph 1018.7mb 53f 51f
6:00pm 3.5ft 7s 7 13 mph 1019.3mb 53f 50f
5:00pm 4ft 8s 4 7 mph 1019.7mb 53f 50f
4:00pm 3.5ft 8s 7 9 mph 1020.2mb 53f 50f
3:00pm 4ft 5s 4 7 mph 1020.3mb 53f 50f
2:00pm 4.5ft 6s 7 9 mph 1020.7mb 53f 50f
1:00pm 4.5ft 7s 11 13 mph 1020.8mb 53f 50f
12:00pm 4.5ft 8s 9 11 mph 1020.8mb 53f 50f
11:00am 4.5ft 8s 13 18 mph 1020.8mb 53f 52f
10:00am 4.5ft 8s 7 9 mph 1020.9mb 53f 52f
9:00am 4.5ft 7s 7 9 mph 1020.8mb 53f 52f
8:00am 4.5ft 7s 4 7 mph 1020.8mb 53f 51f
7:00am 4.5ft 7s 11 13 mph 1020.9mb 53f 50f
6:00am 5ft 7s 9 13 mph 1020.7mb 53f 52f
4:00am 5ft 7s 13 18 mph 1021mb 53f 52f
3:00am 6ft 6s 13 16 mph 1021.5mb 53f 52f
2:00am 6ft 6s 18 22 mph 1021.7mb 53f 52f
1:00am 6ft 6s 18 22 mph 1021.8mb 53f 52f
12:00am 6ft 6s 18 22 mph 1021.9mb 53f 52f
Thu 05/26 11:00pm 6.5ft 6s 20 25 mph 1022.1mb 53f 52f
10:00pm 6ft 6s 22 27 mph 1022mb 53f 52f
9:00pm 5.5ft 6s 22 27 mph 1021.7mb 53f 52f
8:00pm 6ft 6s 22 27 mph 1021.7mb 53f 53f
7:00pm 5.5ft 6s 25 29 mph 1021.6mb 53f 52f
6:00pm 5ft 6s 25 29 mph 1021.9mb 53f 53f
5:00pm 5ft 7s 20 25 mph 1022.1mb 53f 53f
4:00pm 5ft 6s 20 25 mph 1022.8mb 53f 53f
3:00pm 5ft 5s 20 25 mph 1023.1mb 53f 53f
2:00pm 5ft 6s 20 25 mph 1023.1mb 53f 52f
1:00pm 5ft 6s 20 25 mph 1023.3mb 53f 52f
12:00pm 5ft 6s 20 25 mph 1023.4mb 53f 52f
11:00am 5ft 6s 18 22 mph 1023.4mb 53f 52f
10:00am 5ft 6s 18 20 mph 1023.5mb 53f 52f
9:00am 5ft 6s 18 22 mph 1023.5mb 53f 52f
8:00am 5ft 5s 18 22 mph 1023.2mb 53f 52f
7:00am 5.5ft 6s 18 22 mph 1023.2mb 53f 51f
6:00am 5ft 7s 22 25 mph 1023mb 53f 52f
5:00am 6ft 6s 22 27 mph 1023mb 53f 52f
4:00am 6ft 6s 25 29 mph 1022.7mb 53f 52f
3:00am 6.5ft 6s 25 31 mph 1022.9mb 53f 52f
2:00am 7ft 6s 25 29 mph 1023mb 53f 52f
1:00am 6.5ft 6s 25 29 mph 1022.9mb 53f 53f
12:00am 6.5ft 6s 25 29 mph 1023.1mb 53f 53f
Wed 05/25 11:00pm 7ft 6s 25 29 mph 1023.1mb 53f 53f
10:00pm 7ft 6s 29 34 mph 1022.9mb 53f 52f
9:00pm 7.5ft 6s 25 31 mph 1023mb 53f 53f
8:00pm 7ft 6s 27 36 mph 1023mb 53f 53f
7:00pm 7ft 7s 29 34 mph 1022.8mb 53f 53f
6:00pm 6.5ft 5s 29 34 mph 1022.5mb 53f 53f
5:00pm 6ft 6s 25 31 mph 1022.6mb 54f 53f
4:00pm 6ft 7s 27 31 mph 1022.4mb 54f 53f
3:00pm 6ft 6s 25 29 mph 1022.5mb 54f 54f
2:00pm 6ft 7s 25 27 mph 1022.5mb 54f 54f
1:00pm 6ft 6s 22 27 mph 1022.5mb 54f 53f
12:00pm 5.5ft 8s 22 27 mph 1022.3mb 54f 53f
11:00am 6ft 8s 22 27 mph 1022.2mb 54f 53f
10:00am 6ft 8s 22 25 mph 1021.7mb 54f 53f
9:00am 6ft 8s 20 25 mph 1021.6mb 54f 53f
8:00am 6ft 8s 20 22 mph 1021.3mb 53f 53f
7:00am 6ft 8s 20 25 mph 1020.7mb 53f 52f
6:00am 6ft 6s 20 25 mph 1020.4mb 53f 52f
5:00am 6.5ft 7s 22 29 mph 1020.2mb 53f 52f
4:00am 7ft 6s 25 29 mph 1019.8mb 53f 52f
3:00am 7ft 6s 27 31 mph 1019.5mb 53f 52f
2:00am 7ft 6s 27 31 mph 1019mb 53f 52f
1:00am 7.5ft 7s 27 31 mph 1018.6mb 53f 52f
12:00am 7.5ft 8s 27 31 mph 1018.3mb 53f 52f
Tue 05/24 11:00pm 7.5ft 6s 27 31 mph 1018mb 52f 53f
10:00pm 8ft 7s 27 31 mph 1017.7mb 52f 53f
9:00pm 8ft 8s 29 36 mph 1017.1mb 52f 53f
8:00pm 7.5ft 6s 27 34 mph 1016.8mb 52f 54f
7:00pm 8ft 8s 27 34 mph 1016.6mb 53f 54f
6:00pm 8ft 8s 29 36 mph 1016.5mb 53f 54f
5:00pm 8ft 10s 27 31 mph 1016.6mb 52f 54f
4:00pm 7.5ft 9s 27 31 mph 1016.6mb 53f 53f
3:00pm 7ft 9s 25 31 mph 1016.7mb 53f 54f
2:00pm 7ft 9s 27 31 mph 1016.7mb 53f 54f
1:00pm 6.5ft 10s 25 29 mph 1016.5mb 53f 54f
12:00pm 7ft 9s 22 29 mph 1016.4mb 53f 54f